Aviation Digital Data Service (ADDS)

Output produced by METARs form (1904 UTC 22 August 2017)
found at http://aviationweather.gov/adds/metars/
 
KRME 221731Z 2218/2318 22010G18KT P6SM BKN050 
     TEMPO 2221/2223 VRB50KT 3SM +TSRAGS OVC025CB 
     FM230000 25010KT P6SM BKN030 
     FM230500 28008KT P6SM SCT150 
     FM231400 28012KT P6SM BKN040